sensor_id;sensor_type;location;lat;lon;timestamp;pressure;altitude;pressure_sealevel;temperature;humidity
20009;BME280;10165;42.662;23.260;2023-09-30T00:00:03;94563.22;;;21.72;nan
20009;BME280;10165;42.662;23.260;2023-09-30T00:02:31;94574.00;;;21.82;nan
20009;BME280;10165;42.662;23.260;2023-09-30T00:04:58;94563.22;;;21.72;nan
20009;BME280;10165;42.662;23.260;2023-09-30T00:07:25;94562.38;;;21.78;nan
20009;BME280;10165;42.662;23.260;2023-09-30T00:09:53;94562.75;;;21.80;nan
20009;BME280;10165;42.662;23.260;2023-09-30T00:12:19;94566.22;;;21.81;nan
20009;BME280;10165;42.662;23.260;2023-09-30T00:14:47;94568.72;;;21.68;nan
20009;BME280;10165;42.662;23.260;2023-09-30T00:17:14;94564.31;;;21.78;nan
20009;BME280;10165;42.662;23.260;2023-09-30T00:19:41;94565.44;;;21.84;nan
20009;BME280;10165;42.662;23.260;2023-09-30T00:22:08;94561.09;;;21.53;nan
20009;BME280;10165;42.662;23.260;2023-09-30T00:24:35;94556.25;;;21.71;nan
20009;BME280;10165;42.662;23.260;2023-09-30T00:27:02;94555.22;;;21.58;nan
20009;BME280;10165;42.662;23.260;2023-09-30T00:29:29;94553.63;;;21.19;nan
20009;BME280;10165;42.662;23.260;2023-09-30T00:31:55;94548.63;;;21.11;nan
20009;BME280;10165;42.662;23.260;2023-09-30T00:34:22;94560.25;;;21.15;nan
20009;BME280;10165;42.662;23.260;2023-09-30T00:36:49;94548.97;;;21.16;nan
20009;BME280;10165;42.662;23.260;2023-09-30T00:39:15;94551.19;;;21.28;nan
20009;BME280;10165;42.662;23.260;2023-09-30T00:41:42;94546.72;;;21.00;nan
20009;BME280;10165;42.662;23.260;2023-09-30T00:44:09;94554.22;;;20.86;nan
20009;BME280;10165;42.662;23.260;2023-09-30T00:46:37;94546.63;;;21.18;nan
20009;BME280;10165;42.662;23.260;2023-09-30T00:49:07;94542.50;;;21.48;nan
20009;BME280;10165;42.662;23.260;2023-09-30T00:51:34;94551.72;;;21.57;nan
20009;BME280;10165;42.662;23.260;2023-09-30T00:54:01;94550.09;;;21.63;nan
20009;BME280;10165;42.662;23.260;2023-09-30T00:56:29;94552.94;;;21.53;nan
20009;BME280;10165;42.662;23.260;2023-09-30T00:58:56;94543.91;;;21.63;nan
20009;BME280;10165;42.662;23.260;2023-09-30T01:01:25;94552.13;;;21.11;nan
20009;BME280;10165;42.662;23.260;2023-09-30T01:03:52;94546.59;;;21.22;nan
20009;BME280;10165;42.662;23.260;2023-09-30T01:06:20;94547.81;;;21.58;nan
20009;BME280;10165;42.662;23.260;2023-09-30T01:08:47;94543.84;;;21.66;nan
20009;BME280;10165;42.662;23.260;2023-09-30T01:11:14;94547.81;;;21.58;nan
20009;BME280;10165;42.662;23.260;2023-09-30T01:13:41;94536.84;;;21.69;nan
20009;BME280;10165;42.662;23.260;2023-09-30T01:16:11;94538.38;;;21.70;nan
20009;BME280;10165;42.662;23.260;2023-09-30T01:18:41;94535.66;;;21.70;nan
20009;BME280;10165;42.662;23.260;2023-09-30T01:21:10;94531.41;;;21.69;nan
20009;BME280;10165;42.662;23.260;2023-09-30T01:23:38;94539.94;;;21.71;nan
20009;BME280;10165;42.662;23.260;2023-09-30T01:26:11;94533.41;;;21.65;nan
20009;BME280;10165;42.662;23.260;2023-09-30T01:28:39;94534.13;;;21.69;nan
20009;BME280;10165;42.662;23.260;2023-09-30T01:31:06;94536.13;;;21.65;nan
20009;BME280;10165;42.662;23.260;2023-09-30T01:33:33;94537.25;;;21.67;nan
20009;BME280;10165;42.662;23.260;2023-09-30T01:36:00;94536.16;;;21.61;nan
20009;BME280;10165;42.662;23.260;2023-09-30T01:38:27;94534.69;;;21.53;nan
20009;BME280;10165;42.662;23.260;2023-09-30T01:40:54;94537.72;;;21.59;nan
20009;BME280;10165;42.662;23.260;2023-09-30T01:43:22;94536.47;;;21.67;nan
20009;BME280;10165;42.662;23.260;2023-09-30T01:45:49;94532.88;;;21.77;nan
20009;BME280;10165;42.662;23.260;2023-09-30T01:48:16;94536.34;;;21.77;nan
20009;BME280;10165;42.662;23.260;2023-09-30T01:50:43;94534.19;;;21.65;nan
20009;BME280;10165;42.662;23.260;2023-09-30T01:53:10;94535.66;;;21.70;nan
20009;BME280;10165;42.662;23.260;2023-09-30T01:55:37;94533.59;;;21.84;nan
20009;BME280;10165;42.662;23.260;2023-09-30T01:58:03;94534.78;;;21.80;nan
20009;BME280;10165;42.662;23.260;2023-09-30T02:00:30;94533.25;;;21.79;nan
20009;BME280;10165;42.662;23.260;2023-09-30T02:02:57;94529.13;;;21.64;nan
20009;BME280;10165;42.662;23.260;2023-09-30T02:05:24;94529.88;;;21.68;nan
20009;BME280;10165;42.662;23.260;2023-09-30T02:07:51;94526.72;;;21.73;nan
20009;BME280;10165;42.662;23.260;2023-09-30T02:10:19;94530.22;;;21.70;nan
20009;BME280;10165;42.662;23.260;2023-09-30T02:12:46;94531.34;;;21.76;nan
20009;BME280;10165;42.662;23.260;2023-09-30T02:15:13;94520.47;;;21.76;nan
20009;BME280;10165;42.662;23.260;2023-09-30T02:17:40;94532.06;;;21.80;nan
20009;BME280;10165;42.662;23.260;2023-09-30T02:20:12;94523.25;;;21.69;nan
20009;BME280;10165;42.662;23.260;2023-09-30T02:25:11;94524.03;;;21.66;nan
20009;BME280;10165;42.662;23.260;2023-09-30T02:27:40;94532.97;;;21.66;nan
20009;BME280;10165;42.662;23.260;2023-09-30T02:30:11;94531.94;;;21.57;nan
20009;BME280;10165;42.662;23.260;2023-09-30T02:32:43;94529.13;;;21.23;nan
20009;BME280;10165;42.662;23.260;2023-09-30T02:35:13;94530.72;;;21.17;nan
20009;BME280;10165;42.662;23.260;2023-09-30T02:37:42;94536.50;;;21.22;nan
20009;BME280;10165;42.662;23.260;2023-09-30T02:40:09;94532.22;;;20.70;nan
20009;BME280;10165;42.662;23.260;2023-09-30T02:42:37;94531.97;;;21.02;nan
20009;BME280;10165;42.662;23.260;2023-09-30T02:45:05;94532.84;;;20.91;nan
20009;BME280;10165;42.662;23.260;2023-09-30T02:47:35;94532.78;;;20.98;nan
20009;BME280;10165;42.662;23.260;2023-09-30T02:50:02;94536.41;;;20.81;nan
20009;BME280;10165;42.662;23.260;2023-09-30T02:52:31;94532.53;;;20.79;nan
20009;BME280;10165;42.662;23.260;2023-09-30T02:54:58;94531.28;;;20.90;nan
20009;BME280;10165;42.662;23.260;2023-09-30T02:57:25;94535.84;;;21.11;nan
20009;BME280;10165;42.662;23.260;2023-09-30T02:59:54;94545.44;;;20.64;nan
20009;BME280;10165;42.662;23.260;2023-09-30T03:02:20;94538.41;;;20.70;nan
20009;BME280;10165;42.662;23.260;2023-09-30T03:04:50;94538.31;;;20.88;nan
20009;BME280;10165;42.662;23.260;2023-09-30T03:07:20;94533.69;;;20.81;nan
20009;BME280;10165;42.662;23.260;2023-09-30T03:09:47;94531.22;;;21.01;nan
20009;BME280;10165;42.662;23.260;2023-09-30T03:12:14;94533.72;;;20.74;nan
20009;BME280;10165;42.662;23.260;2023-09-30T03:14:41;94530.59;;;20.79;nan
20009;BME280;10165;42.662;23.260;2023-09-30T03:17:09;94526.00;;;20.73;nan
20009;BME280;10165;42.662;23.260;2023-09-30T03:19:39;94534.44;;;20.85;nan
20009;BME280;10165;42.662;23.260;2023-09-30T03:22:06;94529.72;;;20.93;nan
20009;BME280;10165;42.662;23.260;2023-09-30T03:24:38;94528.97;;;20.92;nan
20009;BME280;10165;42.662;23.260;2023-09-30T03:27:06;94535.66;;;20.77;nan
20009;BME280;10165;42.662;23.260;2023-09-30T03:29:37;94530.56;;;20.83;nan
20009;BME280;10165;42.662;23.260;2023-09-30T03:32:05;94525.59;;;20.74;nan
20009;BME280;10165;42.662;23.260;2023-09-30T03:34:33;94530.75;;;20.55;nan
20009;BME280;10165;42.662;23.260;2023-09-30T03:36:59;94531.56;;;20.51;nan
20009;BME280;10165;42.662;23.260;2023-09-30T03:39:26;94533.09;;;20.52;nan
20009;BME280;10165;42.662;23.260;2023-09-30T03:41:56;94527.22;;;20.65;nan
20009;BME280;10165;42.662;23.260;2023-09-30T03:44:25;94523.34;;;20.66;nan
20009;BME280;10165;42.662;23.260;2023-09-30T03:46:52;94525.31;;;20.58;nan
20009;BME280;10165;42.662;23.260;2023-09-30T03:49:19;94522.94;;;20.64;nan
20009;BME280;10165;42.662;23.260;2023-09-30T03:51:49;94530.47;;;20.38;nan
20009;BME280;10165;42.662;23.260;2023-09-30T03:54:17;94526.16;;;20.44;nan
20009;BME280;10165;42.662;23.260;2023-09-30T03:56:45;94525.78;;;20.46;nan
20009;BME280;10165;42.662;23.260;2023-09-30T03:59:13;94524.56;;;20.54;nan
20009;BME280;10165;42.662;23.260;2023-09-30T04:01:40;94516.31;;;20.68;nan
20009;BME280;10165;42.662;23.260;2023-09-30T04:04:07;94525.25;;;20.69;nan
20009;BME280;10165;42.662;23.260;2023-09-30T04:06:37;94519.03;;;20.72;nan
20009;BME280;10165;42.662;23.260;2023-09-30T04:09:06;94524.09;;;20.66;nan
20009;BME280;10165;42.662;23.260;2023-09-30T04:11:39;94530.03;;;20.50;nan
20009;BME280;10165;42.662;23.260;2023-09-30T04:14:07;94530.00;;;20.54;nan
20009;BME280;10165;42.662;23.260;2023-09-30T04:16:34;94529.72;;;20.27;nan
20009;BME280;10165;42.662;23.260;2023-09-30T04:19:02;94527.41;;;20.22;nan
20009;BME280;10165;42.662;23.260;2023-09-30T04:21:29;94535.19;;;20.13;nan
20009;BME280;10165;42.662;23.260;2023-09-30T04:23:58;94536.75;;;20.18;nan
20009;BME280;10165;42.662;23.260;2023-09-30T04:26:25;94533.28;;;20.10;nan
20009;BME280;10165;42.662;23.260;2023-09-30T04:28:52;94545.72;;;20.00;nan
20009;BME280;10165;42.662;23.260;2023-09-30T04:31:22;94548.16;;;19.56;nan
20009;BME280;10165;42.662;23.260;2023-09-30T04:33:50;94551.59;;;19.81;nan
20009;BME280;10165;42.662;23.260;2023-09-30T04:36:20;94553.16;;;19.79;nan
20009;BME280;10165;42.662;23.260;2023-09-30T04:38:48;94562.84;;;19.80;nan
20009;BME280;10165;42.662;23.260;2023-09-30T04:41:15;94559.28;;;19.97;nan
20009;BME280;10165;42.662;23.260;2023-09-30T04:43:42;94552.72;;;19.94;nan
20009;BME280;10165;42.662;23.260;2023-09-30T04:46:10;94562.75;;;19.97;nan
20009;BME280;10165;42.662;23.260;2023-09-30T04:48:40;94560.47;;;19.96;nan
20009;BME280;10165;42.662;23.260;2023-09-30T04:51:07;94568.19;;;19.97;nan
20009;BME280;10165;42.662;23.260;2023-09-30T04:53:35;94559.28;;;20.04;nan
20009;BME280;10165;42.662;23.260;2023-09-30T04:56:02;94565.91;;;19.89;nan
20009;BME280;10165;42.662;23.260;2023-09-30T04:58:29;94557.72;;;20.07;nan
20009;BME280;10165;42.662;23.260;2023-09-30T05:00:57;94569.72;;;20.02;nan
20009;BME280;10165;42.662;23.260;2023-09-30T05:03:26;94561.97;;;20.11;nan
20009;BME280;10165;42.662;23.260;2023-09-30T05:05:55;94572.03;;;20.11;nan
20009;BME280;10165;42.662;23.260;2023-09-30T05:08:23;94564.59;;;20.25;nan
20009;BME280;10165;42.662;23.260;2023-09-30T05:10:51;94567.38;;;20.11;nan
20009;BME280;10165;42.662;23.260;2023-09-30T05:13:21;94572.78;;;20.18;nan
20009;BME280;10165;42.662;23.260;2023-09-30T05:15:50;94581.75;;;20.08;nan
20009;BME280;10165;42.662;23.260;2023-09-30T05:18:20;94575.84;;;20.20;nan
20009;BME280;10165;42.662;23.260;2023-09-30T05:20:47;94573.13;;;20.27;nan
20009;BME280;10165;42.662;23.260;2023-09-30T05:23:16;94568.06;;;20.40;nan
20009;BME280;10165;42.662;23.260;2023-09-30T05:25:44;94571.97;;;20.28;nan
20009;BME280;10165;42.662;23.260;2023-09-30T05:28:11;94569.66;;;20.34;nan
20009;BME280;10165;42.662;23.260;2023-09-30T05:30:38;94573.06;;;20.48;nan
20009;BME280;10165;42.662;23.260;2023-09-30T05:33:06;94569.97;;;20.46;nan
20009;BME280;10165;42.662;23.260;2023-09-30T05:35:33;94573.84;;;20.45;nan
20009;BME280;10165;42.662;23.260;2023-09-30T05:38:00;94580.03;;;20.49;nan
20009;BME280;10165;42.662;23.260;2023-09-30T05:40:27;94575.31;;;20.61;nan
20009;BME280;10165;42.662;23.260;2023-09-30T05:42:57;94586.53;;;20.63;nan
20009;BME280;10165;42.662;23.260;2023-09-30T05:45:26;94586.53;;;20.66;nan
20009;BME280;10165;42.662;23.260;2023-09-30T05:47:54;94586.88;;;20.75;nan
20009;BME280;10165;42.662;23.260;2023-09-30T05:50:23;94585.78;;;20.66;nan
20009;BME280;10165;42.662;23.260;2023-09-30T05:52:54;94591.47;;;20.82;nan
20009;BME280;10165;42.662;23.260;2023-09-30T05:55:22;94591.13;;;20.80;nan
20009;BME280;10165;42.662;23.260;2023-09-30T05:57:49;94589.53;;;20.82;nan
20009;BME280;10165;42.662;23.260;2023-09-30T06:00:17;94596.09;;;20.92;nan
20009;BME280;10165;42.662;23.260;2023-09-30T06:02:48;94588.72;;;20.92;nan
20009;BME280;10165;42.662;23.260;2023-09-30T06:05:16;94594.94;;;20.86;nan
20009;BME280;10165;42.662;23.260;2023-09-30T06:07:42;94594.91;;;20.96;nan
20009;BME280;10165;42.662;23.260;2023-09-30T06:10:12;94597.94;;;21.02;nan
20009;BME280;10165;42.662;23.260;2023-09-30T06:12:39;94598.81;;;20.88;nan
20009;BME280;10165;42.662;23.260;2023-09-30T06:15:07;94599.22;;;20.87;nan
20009;BME280;10165;42.662;23.260;2023-09-30T06:17:34;94608.06;;;20.98;nan
20009;BME280;10165;42.662;23.260;2023-09-30T06:20:04;94608.53;;;20.82;nan
20009;BME280;10165;42.662;23.260;2023-09-30T06:22:33;94597.25;;;20.91;nan
20009;BME280;10165;42.662;23.260;2023-09-30T06:25:01;94595.22;;;21.02;nan
20009;BME280;10165;42.662;23.260;2023-09-30T06:27:30;94607.25;;;21.01;nan
20009;BME280;10165;42.662;23.260;2023-09-30T06:29:57;94614.28;;;20.98;nan
20009;BME280;10165;42.662;23.260;2023-09-30T06:32:24;94616.72;;;20.79;nan
20009;BME280;10165;42.662;23.260;2023-09-30T06:34:51;94623.50;;;21.19;nan
20009;BME280;10165;42.662;23.260;2023-09-30T06:37:19;94607.72;;;21.48;nan
20009;BME280;10165;42.662;23.260;2023-09-30T06:39:47;94608.63;;;21.78;nan
20009;BME280;10165;42.662;23.260;2023-09-30T06:42:14;94614.34;;;21.91;nan
20009;BME280;10165;42.662;23.260;2023-09-30T06:44:41;94612.69;;;22.01;nan
20009;BME280;10165;42.662;23.260;2023-09-30T06:47:08;94605.59;;;22.10;nan
20009;BME280;10165;42.662;23.260;2023-09-30T06:49:38;94613.25;;;22.22;nan
20009;BME280;10165;42.662;23.260;2023-09-30T06:52:05;94618.19;;;22.34;nan
20009;BME280;10165;42.662;23.260;2023-09-30T06:54:33;94611.41;;;22.46;nan
20009;BME280;10165;42.662;23.260;2023-09-30T06:57:00;94612.94;;;22.47;nan
20009;BME280;10165;42.662;23.260;2023-09-30T06:59:27;94621.47;;;22.53;nan
20009;BME280;10165;42.662;23.260;2023-09-30T07:01:54;94624.13;;;22.56;nan
20009;BME280;10165;42.662;23.260;2023-09-30T07:04:21;94626.84;;;22.56;nan
20009;BME280;10165;42.662;23.260;2023-09-30T07:06:48;94628.03;;;22.55;nan
20009;BME280;10165;42.662;23.260;2023-09-30T07:09:15;94629.66;;;22.15;nan
20009;BME280;10165;42.662;23.260;2023-09-30T07:11:43;94633.16;;;22.50;nan
20009;BME280;10165;42.662;23.260;2023-09-30T07:14:10;94636.97;;;22.56;nan
20009;BME280;10165;42.662;23.260;2023-09-30T07:16:37;94623.50;;;22.45;nan
20009;BME280;10165;42.662;23.260;2023-09-30T07:19:06;94625.88;;;22.73;nan
20009;BME280;10165;42.662;23.260;2023-09-30T07:21:33;94627.16;;;22.96;nan
20009;BME280;10165;42.662;23.260;2023-09-30T07:23:59;94633.81;;;22.61;nan
20009;BME280;10165;42.662;23.260;2023-09-30T07:26:26;94624.56;;;22.85;nan
20009;BME280;10165;42.662;23.260;2023-09-30T07:28:54;94629.41;;;23.01;nan
20009;BME280;10165;42.662;23.260;2023-09-30T07:31:23;94637.28;;;22.95;nan
20009;BME280;10165;42.662;23.260;2023-09-30T07:33:50;94624.66;;;23.31;nan
20009;BME280;10165;42.662;23.260;2023-09-30T07:36:17;94635.03;;;23.17;nan
20009;BME280;10165;42.662;23.260;2023-09-30T07:38:44;94635.13;;;23.10;nan
20009;BME280;10165;42.662;23.260;2023-09-30T07:41:11;94633.31;;;23.00;nan
20009;BME280;10165;42.662;23.260;2023-09-30T07:43:38;94630.59;;;23.26;nan
20009;BME280;10165;42.662;23.260;2023-09-30T07:46:05;94630.19;;;23.28;nan
20009;BME280;10165;42.662;23.260;2023-09-30T07:48:33;94633.09;;;23.41;nan
20009;BME280;10165;42.662;23.260;2023-09-30T07:51:01;94635.84;;;23.41;nan
20009;BME280;10165;42.662;23.260;2023-09-30T07:53:28;94637.13;;;23.59;nan
20009;BME280;10165;42.662;23.260;2023-09-30T07:55:55;94643.63;;;23.65;nan
20009;BME280;10165;42.662;23.260;2023-09-30T07:58:23;94634.56;;;23.49;nan
20009;BME280;10165;42.662;23.260;2023-09-30T08:00:49;94636.63;;;23.14;nan
20009;BME280;10165;42.662;23.260;2023-09-30T08:03:17;94635.03;;;23.44;nan
20009;BME280;10165;42.662;23.260;2023-09-30T08:05:44;94633.63;;;23.05;nan
20009;BME280;10165;42.662;23.260;2023-09-30T08:08:11;94636.81;;;23.27;nan
20009;BME280;10165;42.662;23.260;2023-09-30T08:10:37;94638.25;;;23.62;nan
20009;BME280;10165;42.662;23.260;2023-09-30T08:13:04;94634.09;;;23.54;nan
20009;BME280;10165;42.662;23.260;2023-09-30T08:15:31;94636.81;;;23.77;nan
20009;BME280;10165;42.662;23.260;2023-09-30T08:17:58;94630.78;;;23.89;nan
20009;BME280;10165;42.662;23.260;2023-09-30T08:20:25;94638.03;;;23.76;nan
20009;BME280;10165;42.662;23.260;2023-09-30T08:22:52;94633.31;;;24.00;nan
20009;BME280;10165;42.662;23.260;2023-09-30T08:25:18;94630.59;;;23.76;nan
20009;BME280;10165;42.662;23.260;2023-09-30T08:27:45;94636.22;;;23.89;nan
20009;BME280;10165;42.662;23.260;2023-09-30T08:30:16;94630.88;;;24.05;nan
20009;BME280;10165;42.662;23.260;2023-09-30T08:32:43;94631.78;;;23.25;nan
20009;BME280;10165;42.662;23.260;2023-09-30T08:35:09;94629.88;;;23.96;nan
20009;BME280;10165;42.662;23.260;2023-09-30T08:37:37;94640.34;;;24.44;nan
20009;BME280;10165;42.662;23.260;2023-09-30T08:40:05;94639.91;;;23.79;nan
20009;BME280;10165;42.662;23.260;2023-09-30T08:42:32;94636.94;;;23.47;nan
20009;BME280;10165;42.662;23.260;2023-09-30T08:45:02;94635.34;;;23.49;nan
20009;BME280;10165;42.662;23.260;2023-09-30T08:47:30;94626.94;;;23.63;nan
20009;BME280;10165;42.662;23.260;2023-09-30T08:49:59;94628.78;;;24.13;nan
20009;BME280;10165;42.662;23.260;2023-09-30T08:52:33;94623.25;;;24.40;nan
20009;BME280;10165;42.662;23.260;2023-09-30T08:55:07;94615.81;;;24.60;nan
20009;BME280;10165;42.662;23.260;2023-09-30T08:57:40;94621.91;;;24.67;nan
20009;BME280;10165;42.662;23.260;2023-09-30T09:00:11;94619.19;;;24.48;nan
20009;BME280;10165;42.662;23.260;2023-09-30T09:02:40;94619.66;;;24.62;nan
20009;BME280;10165;42.662;23.260;2023-09-30T09:05:07;94617.00;;;24.19;nan
20009;BME280;10165;42.662;23.260;2023-09-30T09:07:35;94617.78;;;23.97;nan
20009;BME280;10165;42.662;23.260;2023-09-30T09:10:06;94616.16;;;24.22;nan
20009;BME280;10165;42.662;23.260;2023-09-30T09:12:34;94620.28;;;24.31;nan
20009;BME280;10165;42.662;23.260;2023-09-30T09:15:02;94602.72;;;24.71;nan
20009;BME280;10165;42.662;23.260;2023-09-30T09:17:44;94610.13;;;24.70;nan
20009;BME280;10165;42.662;23.260;2023-09-30T09:20:17;94608.66;;;24.46;nan
20009;BME280;10165;42.662;23.260;2023-09-30T09:22:49;94605.53;;;24.67;nan
20009;BME280;10165;42.662;23.260;2023-09-30T09:25:17;94605.78;;;24.93;nan
20009;BME280;10165;42.662;23.260;2023-09-30T09:27:44;94596.19;;;25.20;nan
20009;BME280;10165;42.662;23.260;2023-09-30T09:33:02;94606.13;;;24.75;nan
20009;BME280;10165;42.662;23.260;2023-09-30T09:35:32;94608.44;;;24.76;nan
20009;BME280;10165;42.662;23.260;2023-09-30T09:40:28;94606.78;;;24.23;nan
20009;BME280;10165;42.662;23.260;2023-09-30T09:42:56;94591.66;;;24.58;nan
20009;BME280;10165;42.662;23.260;2023-09-30T09:45:25;94588.72;;;25.05;nan
20009;BME280;10165;42.662;23.260;2023-09-30T09:47:53;94587.91;;;24.88;nan
20009;BME280;10165;42.662;23.260;2023-09-30T09:50:22;94597.72;;;24.66;nan
20009;BME280;10165;42.662;23.260;2023-09-30T09:52:52;94592.75;;;24.61;nan
20009;BME280;10165;42.662;23.260;2023-09-30T09:55:22;94595.84;;;24.63;nan
20009;BME280;10165;42.662;23.260;2023-09-30T09:57:50;94598.03;;;24.71;nan
20009;BME280;10165;42.662;23.260;2023-09-30T10:00:20;94590.88;;;24.58;nan
20009;BME280;10165;42.662;23.260;2023-09-30T10:02:48;94580.94;;;24.87;nan
20009;BME280;10165;42.662;23.260;2023-09-30T10:05:15;94592.78;;;24.41;nan
20009;BME280;10165;42.662;23.260;2023-09-30T10:07:53;94577.75;;;24.69;nan
20009;BME280;10165;42.662;23.260;2023-09-30T10:10:23;94582.50;;;24.49;nan
20009;BME280;10165;42.662;23.260;2023-09-30T10:12:50;94576.16;;;24.71;nan
20009;BME280;10165;42.662;23.260;2023-09-30T10:18:07;94565.66;;;25.06;nan
20009;BME280;10165;42.662;23.260;2023-09-30T10:20:41;94560.38;;;25.47;nan
20009;BME280;10165;42.662;23.260;2023-09-30T10:25:45;94562.41;;;25.27;nan
20009;BME280;10165;42.662;23.260;2023-09-30T10:28:32;94561.97;;;24.96;nan
20009;BME280;10165;42.662;23.260;2023-09-30T10:31:19;94555.47;;;24.90;nan
20009;BME280;10165;42.662;23.260;2023-09-30T10:36:38;94556.53;;;25.45;nan
20009;BME280;10165;42.662;23.260;2023-09-30T10:39:11;94551.38;;;25.47;nan
20009;BME280;10165;42.662;23.260;2023-09-30T10:46:58;94546.69;;;24.99;nan
20009;BME280;10165;42.662;23.260;2023-09-30T10:51:53;94536.44;;;25.51;nan
20009;BME280;10165;42.662;23.260;2023-09-30T10:54:28;94533.22;;;25.85;nan
20009;BME280;10165;42.662;23.260;2023-09-30T10:56:56;94535.41;;;25.61;nan
20009;BME280;10165;42.662;23.260;2023-09-30T10:59:27;94538.22;;;25.74;nan
20009;BME280;10165;42.662;23.260;2023-09-30T11:01:54;94543.19;;;25.47;nan
20009;BME280;10165;42.662;23.260;2023-09-30T11:04:22;94532.78;;;25.09;nan
20009;BME280;10165;42.662;23.260;2023-09-30T11:06:49;94533.47;;;25.13;nan
20009;BME280;10165;42.662;23.260;2023-09-30T11:09:21;94534.84;;;25.21;nan
20009;BME280;10165;42.662;23.260;2023-09-30T11:11:52;94531.78;;;25.81;nan
20009;BME280;10165;42.662;23.260;2023-09-30T11:16:48;94517.63;;;26.27;nan
20009;BME280;10165;42.662;23.260;2023-09-30T11:19:16;94534.84;;;25.21;nan
20009;BME280;10165;42.662;23.260;2023-09-30T11:21:43;94518.09;;;25.52;nan
20009;BME280;10165;42.662;23.260;2023-09-30T11:24:12;94522.84;;;25.64;nan
20009;BME280;10165;42.662;23.260;2023-09-30T11:26:39;94529.44;;;25.18;nan
20009;BME280;10165;42.662;23.260;2023-09-30T11:29:15;94521.69;;;24.81;nan
20009;BME280;10165;42.662;23.260;2023-09-30T11:31:44;94512.91;;;25.38;nan
20009;BME280;10165;42.662;23.260;2023-09-30T11:34:12;94508.53;;;25.73;nan
20009;BME280;10165;42.662;23.260;2023-09-30T11:36:40;94509.78;;;25.84;nan
20009;BME280;10165;42.662;23.260;2023-09-30T11:39:25;94503.38;;;26.20;nan
20009;BME280;10165;42.662;23.260;2023-09-30T11:41:53;94501.38;;;25.91;nan
20009;BME280;10165;42.662;23.260;2023-09-30T11:44:21;94506.13;;;25.91;nan
20009;BME280;10165;42.662;23.260;2023-09-30T11:49:38;94503.13;;;25.85;nan
20009;BME280;10165;42.662;23.260;2023-09-30T11:52:08;94490.56;;;26.00;nan
20009;BME280;10165;42.662;23.260;2023-09-30T11:54:38;94481.84;;;26.05;nan
20009;BME280;10165;42.662;23.260;2023-09-30T11:57:11;94481.50;;;26.32;nan
20009;BME280;10165;42.662;23.260;2023-09-30T11:59:42;94484.34;;;26.29;nan
20009;BME280;10165;42.662;23.260;2023-09-30T12:02:10;94484.59;;;26.18;nan
20009;BME280;10165;42.662;23.260;2023-09-30T12:04:41;94487.28;;;25.93;nan
20009;BME280;10165;42.662;23.260;2023-09-30T12:07:08;94480.22;;;25.79;nan
20009;BME280;10165;42.662;23.260;2023-09-30T12:09:36;94475.38;;;26.12;nan
20009;BME280;10165;42.662;23.260;2023-09-30T12:12:07;94471.41;;;26.42;nan
20009;BME280;10165;42.662;23.260;2023-09-30T12:14:37;94464.41;;;26.41;nan
20009;BME280;10165;42.662;23.260;2023-09-30T12:17:04;94461.88;;;26.34;nan
20009;BME280;10165;42.662;23.260;2023-09-30T12:19:31;94458.38;;;26.58;nan
20009;BME280;10165;42.662;23.260;2023-09-30T12:21:58;94453.91;;;26.52;nan
20009;BME280;10165;42.662;23.260;2023-09-30T12:24:24;94454.03;;;26.86;nan
20009;BME280;10165;42.662;23.260;2023-09-30T12:26:53;94449.38;;;26.20;nan
20009;BME280;10165;42.662;23.260;2023-09-30T12:29:22;94448.38;;;26.27;nan
20009;BME280;10165;42.662;23.260;2023-09-30T12:31:52;94450.53;;;25.49;nan
20009;BME280;10165;42.662;23.260;2023-09-30T12:34:21;94463.97;;;25.72;nan
20009;BME280;10165;42.662;23.260;2023-09-30T12:36:54;94452.56;;;25.61;nan
20009;BME280;10165;42.662;23.260;2023-09-30T12:39:25;94447.84;;;25.61;nan
20009;BME280;10165;42.662;23.260;2023-09-30T12:41:53;94451.25;;;25.65;nan
20009;BME280;10165;42.662;23.260;2023-09-30T12:44:20;94446.66;;;26.04;nan
20009;BME280;10165;42.662;23.260;2023-09-30T12:46:49;94447.38;;;25.79;nan
20009;BME280;10165;42.662;23.260;2023-09-30T12:49:17;94437.72;;;26.16;nan
20009;BME280;10165;42.662;23.260;2023-09-30T12:51:44;94436.56;;;26.42;nan
20009;BME280;10165;42.662;23.260;2023-09-30T12:54:11;94442.66;;;25.80;nan
20009;BME280;10165;42.662;23.260;2023-09-30T12:56:40;94427.97;;;26.02;nan
20009;BME280;10165;42.662;23.260;2023-09-30T12:59:06;94429.25;;;25.98;nan
20009;BME280;10165;42.662;23.260;2023-09-30T13:01:33;94430.97;;;25.79;nan
20009;BME280;10165;42.662;23.260;2023-09-30T13:04:01;94439.28;;;25.88;nan
20009;BME280;10165;42.662;23.260;2023-09-30T13:06:28;94430.44;;;25.97;nan
20009;BME280;10165;42.662;23.260;2023-09-30T13:08:57;94440.09;;;25.60;nan
20009;BME280;10165;42.662;23.260;2023-09-30T13:11:25;94425.78;;;26.10;nan
20009;BME280;10165;42.662;23.260;2023-09-30T13:13:53;94429.06;;;26.17;nan
20009;BME280;10165;42.662;23.260;2023-09-30T13:16:20;94421.72;;;26.14;nan
20009;BME280;10165;42.662;23.260;2023-09-30T13:18:47;94425.53;;;26.04;nan
20009;BME280;10165;42.662;23.260;2023-09-30T13:21:13;94423.88;;;26.48;nan
20009;BME280;10165;42.662;23.260;2023-09-30T13:23:41;94425.09;;;25.64;nan
20009;BME280;10165;42.662;23.260;2023-09-30T13:26:08;94421.44;;;26.38;nan
20009;BME280;10165;42.662;23.260;2023-09-30T13:28:35;94417.03;;;26.91;nan
20009;BME280;10165;42.662;23.260;2023-09-30T13:31:02;94417.72;;;26.70;nan
20009;BME280;10165;42.662;23.260;2023-09-30T13:33:29;94420.31;;;26.23;nan
20009;BME280;10165;42.662;23.260;2023-09-30T13:35:56;94411.78;;;26.21;nan
20009;BME280;10165;42.662;23.260;2023-09-30T13:38:23;94421.13;;;26.48;nan
20009;BME280;10165;42.662;23.260;2023-09-30T13:40:50;94415.31;;;25.92;nan
20009;BME280;10165;42.662;23.260;2023-09-30T13:43:17;94405.34;;;26.40;nan